createdAt,value
2019-04-21T00:01:08.737Z,6.20
2019-04-21T00:03:45.356Z,6.20
2019-04-21T00:06:32.439Z,6.00
2019-04-21T00:09:11.199Z,5.90
2019-04-21T00:11:37.777Z,5.70
2019-04-21T00:14:01.955Z,5.70
2019-04-21T00:16:32.726Z,5.50
2019-04-21T00:19:08.138Z,5.40
2019-04-21T00:21:38.602Z,5.40
2019-04-21T00:24:23.921Z,5.30
2019-04-21T00:27:02.510Z,5.30
2019-04-21T00:32:08.574Z,5.00
2019-04-21T00:34:23.773Z,4.70
2019-04-21T00:37:08.518Z,4.50
2019-04-21T00:42:19.468Z,4.50
2019-04-21T00:44:51.165Z,4.50
2019-04-21T00:47:33.027Z,4.50
2019-04-21T00:50:00.793Z,4.40
2019-04-21T00:55:35.539Z,4.00
2019-04-21T00:58:12.640Z,4.00
2019-04-21T01:00:32.335Z,3.90
2019-04-21T01:03:13.097Z,3.90
2019-04-21T01:05:41.120Z,3.80
2019-04-21T01:08:11.514Z,3.70
2019-04-21T01:10:34.928Z,3.70
2019-04-21T01:13:23.398Z,3.70
2019-04-21T01:18:20.553Z,3.60
2019-04-21T01:20:32.741Z,3.60
2019-04-21T01:23:04.360Z,3.60
2019-04-21T01:25:43.722Z,3.60
2019-04-21T01:28:24.143Z,3.50
2019-04-21T01:31:00.968Z,3.50
2019-04-21T01:33:38.203Z,3.40
2019-04-21T01:36:03.737Z,3.50
2019-04-21T01:38:44.334Z,3.40
2019-04-21T01:41:17.968Z,3.30
2019-04-21T01:43:39.507Z,3.20
2019-04-21T01:46:14.156Z,3.20
2019-04-21T01:48:44.093Z,3.30
2019-04-21T01:51:18.470Z,3.30
2019-04-21T01:54:08.864Z,3.30
2019-04-21T01:56:46.222Z,3.30
2019-04-21T01:59:03.758Z,3.30
2019-04-21T02:01:52.732Z,3.40
2019-04-21T02:04:29.276Z,3.40
2019-04-21T02:06:59.979Z,3.40
2019-04-21T02:09:33.675Z,3.30
2019-04-21T02:12:12.314Z,3.20
2019-04-21T02:14:45.860Z,3.10
2019-04-21T02:17:14.716Z,3.10
2019-04-21T02:19:42.195Z,3.10
2019-04-21T02:22:21.493Z,3.10
2019-04-21T02:24:56.813Z,3.10
2019-04-21T02:27:26.434Z,3.00
2019-04-21T02:30:00.154Z,3.00
2019-04-21T02:32:44.212Z,3.00
2019-04-21T02:35:24.502Z,3.00
2019-04-21T02:37:54.868Z,2.90
2019-04-21T02:43:03.152Z,2.90
2019-04-21T02:45:28.438Z,2.80
2019-04-21T02:53:05.242Z,2.80
2019-04-21T02:55:37.432Z,2.80
2019-04-21T02:58:20.824Z,2.70
2019-04-21T03:00:46.578Z,2.80
2019-04-21T03:03:31.700Z,2.70
2019-04-21T03:05:58.614Z,2.60
2019-04-21T03:08:43.019Z,2.60
2019-04-21T03:11:11.948Z,2.60
2019-04-21T03:14:03.426Z,2.70
2019-04-21T03:16:17.115Z,2.60
2019-04-21T03:18:48.282Z,2.70
2019-04-21T03:26:28.965Z,2.80
2019-04-21T03:28:54.547Z,2.80
2019-04-21T03:36:47.644Z,2.60
2019-04-21T03:39:20.168Z,2.70
2019-04-21T03:41:37.990Z,2.70
2019-04-21T03:44:18.091Z,2.70
2019-04-21T03:46:56.058Z,2.80
2019-04-21T03:49:20.811Z,2.70
2019-04-21T03:54:15.611Z,2.50
2019-04-21T03:59:21.506Z,2.30
2019-04-21T04:02:05.880Z,2.50
2019-04-21T04:04:52.701Z,2.60
2019-04-21T04:07:49.688Z,2.70
2019-04-21T04:10:11.681Z,2.70
2019-04-21T04:12:52.921Z,2.50
2019-04-21T04:18:00.889Z,2.50
2019-04-21T04:20:28.076Z,2.50
2019-04-21T04:23:02.996Z,2.50
2019-04-21T04:28:10.166Z,2.20
2019-04-21T04:30:39.907Z,2.20
2019-04-21T04:33:21.305Z,2.10
2019-04-21T04:38:22.288Z,2.00
2019-04-21T04:43:52.768Z,2.00
2019-04-21T04:45:59.179Z,2.00
2019-04-21T04:48:34.872Z,2.30
2019-04-21T04:56:12.485Z,2.30
2019-04-21T05:06:42.003Z,2.70
2019-04-21T05:14:07.593Z,3.00
2019-04-21T05:19:20.198Z,3.20
2019-04-21T05:21:42.182Z,3.40
2019-04-21T05:24:01.365Z,3.60
2019-04-21T05:26:33.438Z,3.60
2019-04-21T05:29:06.982Z,3.80
2019-04-21T05:32:07.874Z,4.00
2019-04-21T05:34:38.945Z,4.00
2019-04-21T05:37:20.320Z,4.10
2019-04-21T05:39:48.032Z,4.30
2019-04-21T05:42:15.314Z,4.40
2019-04-21T05:45:10.609Z,4.60
2019-04-21T05:47:57.912Z,4.80
2019-04-21T05:50:07.512Z,4.90
2019-04-21T05:52:36.665Z,5.10
2019-04-21T05:55:22.273Z,5.30
2019-04-21T05:57:47.910Z,5.70
2019-04-21T06:00:23.545Z,5.90
2019-04-21T06:03:00.665Z,6.10
2019-04-21T06:05:39.044Z,6.40
2019-04-21T06:08:00.394Z,6.70
2019-04-21T06:10:38.017Z,7.10
2019-04-21T06:13:13.070Z,7.40
2019-04-21T06:15:48.496Z,7.60
2019-04-21T06:20:51.146Z,8.00
2019-04-21T06:23:20.400Z,8.20
2019-04-21T06:28:30.316Z,8.60
2019-04-21T06:31:07.141Z,8.70
2019-04-21T06:33:39.466Z,9.00
2019-04-21T06:41:27.787Z,9.80
2019-04-21T06:44:05.651Z,10.00
2019-04-21T06:46:33.415Z,10.30
2019-04-21T06:49:01.259Z,10.50
2019-04-21T06:51:33.747Z,10.80
2019-04-21T06:59:22.166Z,11.40
2019-04-21T07:01:52.446Z,11.60
2019-04-21T07:06:52.042Z,12.00
2019-04-21T07:09:31.647Z,12.10
2019-04-21T07:11:48.806Z,12.20
2019-04-21T07:17:09.419Z,12.60
2019-04-21T07:19:34.929Z,12.70
2019-04-21T07:22:03.074Z,12.90
2019-04-21T07:24:41.774Z,13.20
2019-04-21T07:27:11.786Z,13.40
2019-04-21T07:29:47.437Z,13.50
2019-04-21T07:32:15.340Z,13.70
2019-04-21T07:34:55.560Z,13.70
2019-04-21T07:37:18.547Z,13.90
2019-04-21T07:39:49.872Z,14.10
2019-04-21T07:42:19.274Z,14.20
2019-04-21T07:44:53.542Z,14.40
2019-04-21T07:47:32.638Z,14.40
2019-04-21T07:50:14.952Z,14.50
2019-04-21T07:53:01.005Z,14.70
2019-04-21T07:58:02.872Z,14.90
2019-04-21T08:00:45.304Z,15.00
2019-04-21T08:03:12.883Z,15.10
2019-04-21T08:06:00.669Z,15.20
2019-04-21T08:08:12.421Z,15.40
2019-04-21T08:10:44.119Z,15.40
2019-04-21T08:13:28.872Z,15.60
2019-04-21T08:15:51.057Z,15.60
2019-04-21T08:18:30.090Z,15.70
2019-04-21T08:20:54.760Z,15.80
2019-04-21T08:23:34.093Z,16.00
2019-04-21T08:26:06.471Z,16.10
2019-04-21T08:28:42.710Z,16.20
2019-04-21T08:31:09.955Z,16.30
2019-04-21T08:33:50.294Z,16.40
2019-04-21T08:38:49.614Z,16.60
2019-04-21T08:41:18.157Z,16.70
2019-04-21T08:43:51.309Z,16.90
2019-04-21T08:46:25.370Z,17.00
2019-04-21T08:48:58.000Z,17.10
2019-04-21T08:51:34.029Z,17.30
2019-04-21T08:54:09.414Z,17.20
2019-04-21T08:56:34.353Z,17.30
2019-04-21T08:59:19.243Z,17.50
2019-04-21T09:01:57.296Z,17.60
2019-04-21T09:04:24.481Z,17.90
2019-04-21T09:07:05.170Z,18.00
2019-04-21T09:09:34.991Z,18.10
2019-04-21T09:12:04.405Z,18.20
2019-04-21T09:14:37.095Z,18.30
2019-04-21T09:17:08.037Z,18.40
2019-04-21T09:19:51.907Z,18.60
2019-04-21T09:22:12.958Z,18.80
2019-04-21T09:24:49.798Z,18.80
2019-04-21T09:27:14.261Z,18.90
2019-04-21T09:29:40.568Z,19.00
2019-04-21T09:32:12.521Z,19.10
2019-04-21T09:34:43.555Z,19.20
2019-04-21T09:37:24.331Z,19.20
2019-04-21T09:39:48.779Z,19.30
2019-04-21T09:42:19.684Z,19.40
2019-04-21T09:44:53.804Z,19.40
2019-04-21T09:47:24.931Z,19.50
2019-04-21T09:49:56.277Z,19.50
2019-04-21T09:52:37.549Z,19.70
2019-04-21T09:55:06.941Z,19.80
2019-04-21T09:57:41.281Z,20.00
2019-04-21T10:00:17.966Z,21.50
2019-04-21T10:02:54.725Z,24.20
2019-04-21T10:05:16.786Z,26.80
2019-04-21T10:07:48.932Z,28.40
2019-04-21T10:10:22.948Z,30.00
2019-04-21T10:12:54.075Z,30.10
2019-04-21T10:15:27.014Z,31.50
2019-04-21T10:18:00.584Z,32.20
2019-04-21T10:20:32.806Z,32.30
2019-04-21T10:23:05.036Z,31.90
2019-04-21T10:25:36.786Z,32.30
2019-04-21T10:28:07.880Z,32.10
2019-04-21T10:30:38.818Z,33.20
2019-04-21T10:33:10.410Z,32.60
2019-04-21T10:35:41.543Z,33.30
2019-04-21T10:38:22.976Z,33.40
2019-04-21T10:40:45.999Z,34.00
2019-04-21T10:43:21.692Z,33.90
2019-04-21T10:45:50.719Z,35.30
2019-04-21T10:48:23.110Z,34.70
2019-04-21T10:50:54.927Z,34.80
2019-04-21T10:53:28.985Z,34.70
2019-04-21T10:56:12.207Z,34.60
2019-04-21T10:58:34.394Z,34.50
2019-04-21T11:01:14.075Z,34.90
2019-04-21T11:03:46.951Z,35.30
2019-04-21T11:06:19.225Z,35.10
2019-04-21T11:08:55.147Z,35.10
2019-04-21T11:11:23.872Z,34.70
2019-04-21T11:13:55.112Z,34.40
2019-04-21T11:16:26.934Z,34.00
2019-04-21T11:18:58.144Z,33.70
2019-04-21T11:21:29.340Z,33.40
2019-04-21T11:24:01.728Z,34.20
2019-04-21T11:26:33.793Z,33.60
2019-04-21T11:29:05.183Z,33.90
2019-04-21T11:31:36.886Z,34.50
2019-04-21T11:34:09.137Z,35.40
2019-04-21T11:36:40.601Z,35.70
2019-04-21T11:39:27.221Z,34.90
2019-04-21T11:41:49.803Z,34.50
2019-04-21T11:44:24.246Z,34.50
2019-04-21T11:46:54.385Z,34.00
2019-04-21T11:49:27.666Z,33.60
2019-04-21T11:51:58.716Z,34.00
2019-04-21T11:54:30.936Z,33.80
2019-04-21T11:57:11.447Z,33.50
2019-04-21T11:59:35.610Z,34.70
2019-04-21T12:02:07.936Z,35.60
2019-04-21T12:04:39.287Z,36.70
2019-04-21T12:07:11.413Z,36.60
2019-04-21T12:09:43.693Z,36.60
2019-04-21T12:12:15.131Z,36.40
2019-04-21T12:14:46.090Z,36.70
2019-04-21T12:17:18.320Z,36.30
2019-04-21T12:19:50.664Z,35.90
2019-04-21T12:22:26.497Z,35.10
2019-04-21T12:24:55.489Z,35.00
2019-04-21T12:27:27.740Z,35.00
2019-04-21T12:29:59.669Z,35.70
2019-04-21T12:32:48.648Z,36.50
2019-04-21T12:35:19.911Z,37.30
2019-04-21T12:37:51.092Z,36.30
2019-04-21T12:40:22.190Z,36.80
2019-04-21T12:42:54.779Z,36.90
2019-04-21T12:45:26.121Z,36.50
2019-04-21T12:47:57.924Z,36.50
2019-04-21T12:50:30.078Z,37.10
2019-04-21T12:53:01.029Z,36.10
2019-04-21T12:55:37.427Z,36.40
2019-04-21T12:58:05.534Z,36.10
2019-04-21T13:00:36.811Z,35.90
2019-04-21T13:03:07.974Z,35.90
2019-04-21T13:05:39.982Z,36.40
2019-04-21T13:08:11.481Z,36.50
2019-04-21T13:10:42.646Z,37.30
2019-04-21T13:13:14.368Z,37.80
2019-04-21T13:15:45.484Z,37.90
2019-04-21T13:18:16.571Z,36.80
2019-04-21T13:20:48.515Z,36.80
2019-04-21T13:23:20.858Z,36.40
2019-04-21T13:25:52.014Z,36.50
2019-04-21T13:28:23.034Z,36.60
2019-04-21T13:30:54.099Z,37.20
2019-04-21T13:33:25.330Z,37.50
2019-04-21T13:35:57.235Z,37.70
2019-04-21T13:38:36.404Z,37.80
2019-04-21T13:41:20.384Z,37.40
2019-04-21T13:43:35.152Z,37.30
2019-04-21T13:46:07.953Z,37.40
2019-04-21T13:48:40.358Z,37.60
2019-04-21T13:51:11.408Z,36.40
2019-04-21T13:53:43.795Z,37.10
2019-04-21T13:56:16.189Z,36.50
2019-04-21T13:58:48.377Z,36.50
2019-04-21T14:01:19.469Z,36.20
2019-04-21T14:03:51.456Z,36.30
2019-04-21T14:06:22.634Z,36.50
2019-04-21T14:08:56.993Z,36.90
2019-04-21T14:11:29.270Z,38.10
2019-04-21T14:14:00.621Z,37.30
2019-04-21T14:16:33.928Z,38.00
2019-04-21T14:19:05.620Z,38.10
2019-04-21T14:21:37.080Z,38.70
2019-04-21T14:24:08.899Z,37.60
2019-04-21T14:26:40.423Z,37.60
2019-04-21T14:29:11.571Z,37.80
2019-04-21T14:31:42.504Z,38.00
2019-04-21T14:34:14.342Z,37.40
2019-04-21T14:36:46.588Z,37.60
2019-04-21T14:39:18.565Z,37.70
2019-04-21T14:41:50.520Z,37.50
2019-04-21T14:44:22.762Z,37.10
2019-04-21T14:46:55.446Z,37.20
2019-04-21T14:49:29.090Z,37.00
2019-04-21T14:52:03.040Z,37.10
2019-04-21T14:54:33.833Z,37.00
2019-04-21T14:57:05.366Z,36.50
2019-04-21T14:59:37.215Z,36.80
2019-04-21T15:02:09.759Z,37.00
2019-04-21T15:04:41.709Z,37.00
2019-04-21T15:07:13.052Z,36.70
2019-04-21T15:09:44.649Z,37.50
2019-04-21T15:12:16.214Z,37.40
2019-04-21T15:14:47.697Z,37.50
2019-04-21T15:17:20.816Z,37.10
2019-04-21T15:20:01.896Z,36.70
2019-04-21T15:22:24.145Z,36.80
2019-04-21T15:24:56.324Z,37.00
2019-04-21T15:27:27.565Z,36.40
2019-04-21T15:29:58.707Z,35.90
2019-04-21T15:32:30.617Z,36.50
2019-04-21T15:35:02.321Z,36.40
2019-04-21T15:37:35.754Z,36.60
2019-04-21T15:40:21.028Z,36.50
2019-04-21T15:42:42.101Z,35.60
2019-04-21T15:45:14.607Z,35.60
2019-04-21T15:47:46.170Z,35.60
2019-04-21T15:50:20.141Z,35.80
2019-04-21T15:52:53.765Z,35.80
2019-04-21T15:55:42.545Z,35.60
2019-04-21T15:58:20.555Z,35.30
2019-04-21T16:00:54.429Z,35.10
2019-04-21T16:03:26.737Z,35.20
2019-04-21T16:05:59.334Z,35.10
2019-04-21T16:08:31.202Z,34.80
2019-04-21T16:11:04.526Z,34.60
2019-04-21T16:13:34.978Z,34.50
2019-04-21T16:16:08.405Z,34.80
2019-04-21T16:18:40.337Z,34.60
2019-04-21T16:21:11.816Z,33.90
2019-04-21T16:23:44.385Z,33.20
2019-04-21T16:26:16.925Z,33.40
2019-04-21T16:28:49.089Z,33.90
2019-04-21T16:31:20.374Z,33.20
2019-04-21T16:33:51.488Z,32.50
2019-04-21T16:36:23.311Z,33.40
2019-04-21T16:38:55.612Z,33.50
2019-04-21T16:41:26.728Z,33.70
2019-04-21T16:43:58.919Z,33.70
2019-04-21T16:46:31.638Z,32.70
2019-04-21T16:49:04.068Z,32.60
2019-04-21T16:51:36.054Z,31.90
2019-04-21T16:54:10.071Z,31.10
2019-04-21T16:56:45.693Z,29.60
2019-04-21T16:59:20.971Z,29.30
2019-04-21T17:01:52.499Z,28.80
2019-04-21T17:04:24.679Z,27.80
2019-04-21T17:06:55.655Z,27.50
2019-04-21T17:09:28.527Z,26.70
2019-04-21T17:12:04.040Z,26.20
2019-04-21T17:14:51.293Z,25.70
2019-04-21T17:17:27.215Z,25.10
2019-04-21T17:19:43.848Z,24.60
2019-04-21T17:22:13.677Z,24.00
2019-04-21T17:24:46.390Z,23.30
2019-04-21T17:27:17.625Z,23.00
2019-04-21T17:29:48.736Z,22.70
2019-04-21T17:32:20.546Z,22.50
2019-04-21T17:34:52.158Z,22.30
2019-04-21T17:37:25.425Z,21.90
2019-04-21T17:39:56.864Z,21.60
2019-04-21T17:42:37.849Z,21.30
2019-04-21T17:45:01.288Z,21.20
2019-04-21T17:47:44.329Z,21.00
2019-04-21T17:50:21.264Z,20.80
2019-04-21T17:53:04.969Z,20.60
2019-04-21T17:55:36.745Z,20.30
2019-04-21T17:58:21.965Z,20.10
2019-04-21T18:01:10.356Z,19.80
2019-04-21T18:06:02.479Z,19.30
2019-04-21T18:08:43.023Z,19.00
2019-04-21T18:11:03.324Z,18.90
2019-04-21T18:13:26.829Z,18.70
2019-04-21T18:16:09.636Z,18.50
2019-04-21T18:18:30.852Z,18.40
2019-04-21T18:21:04.596Z,18.10
2019-04-21T18:23:47.217Z,17.80
2019-04-21T18:26:23.516Z,17.50
2019-04-21T18:28:40.983Z,17.30
2019-04-21T18:31:14.373Z,17.10
2019-04-21T18:33:49.076Z,16.90
2019-04-21T18:36:31.289Z,16.70
2019-04-21T18:39:13.566Z,16.50
2019-04-21T18:41:36.546Z,16.30
2019-04-21T18:44:45.859Z,16.20
2019-04-21T18:47:10.637Z,16.00
2019-04-21T18:49:26.982Z,15.80
2019-04-21T18:52:18.322Z,15.70
2019-04-21T18:54:54.939Z,15.60
2019-04-21T18:57:24.337Z,15.50
2019-04-21T18:59:48.802Z,15.40
2019-04-21T19:02:20.516Z,15.30
2019-04-21T19:04:53.844Z,15.10
2019-04-21T19:07:37.816Z,14.80
2019-04-21T19:10:22.301Z,14.70
2019-04-21T19:13:15.978Z,14.50
2019-04-21T19:15:17.871Z,14.50
2019-04-21T19:20:32.768Z,14.30
2019-04-21T19:22:58.751Z,14.30
2019-04-21T19:25:31.527Z,14.20
2019-04-21T19:27:59.027Z,14.10
2019-04-21T19:30:50.970Z,14.00
2019-04-21T19:33:14.413Z,13.80
2019-04-21T19:35:35.168Z,13.60
2019-04-21T19:38:10.487Z,13.50
2019-04-21T19:40:54.477Z,13.50
2019-04-21T19:43:31.848Z,13.40
2019-04-21T19:45:59.455Z,13.20
2019-04-21T19:48:36.319Z,13.00
2019-04-21T19:51:05.644Z,12.90
2019-04-21T19:53:37.146Z,12.80
2019-04-21T19:55:56.176Z,12.70
2019-04-21T19:58:32.997Z,12.60
2019-04-21T20:01:01.504Z,12.50
2019-04-21T20:03:34.682Z,12.50
2019-04-21T20:06:14.884Z,12.40
2019-04-21T20:09:00.676Z,12.30
2019-04-21T20:11:31.836Z,12.20
2019-04-21T20:14:33.971Z,12.10
2019-04-21T20:16:37.468Z,12.00
2019-04-21T20:18:55.331Z,11.90
2019-04-21T20:21:22.908Z,12.00
2019-04-21T20:23:57.509Z,11.80
2019-04-21T20:26:30.372Z,11.60
2019-04-21T20:29:14.836Z,11.50
2019-04-21T20:31:46.980Z,11.50
2019-04-21T20:34:26.965Z,11.30
2019-04-21T20:36:57.986Z,11.20
2019-04-21T20:39:16.539Z,11.00
2019-04-21T20:41:55.308Z,10.90
2019-04-21T20:44:29.600Z,10.70
2019-04-21T20:47:02.315Z,10.70
2019-04-21T20:49:34.205Z,10.60
2019-04-21T20:52:17.217Z,10.60
2019-04-21T20:54:41.019Z,10.50
2019-04-21T20:57:18.315Z,10.40
2019-04-21T20:59:43.865Z,10.20
2019-04-21T21:02:19.962Z,10.20
2019-04-21T21:04:43.400Z,10.20
2019-04-21T21:07:40.007Z,10.20
2019-04-21T21:10:00.127Z,10.00
2019-04-21T21:12:37.309Z,10.00
2019-04-21T21:15:00.147Z,10.00
2019-04-21T21:17:49.923Z,10.00
2019-04-21T21:20:14.314Z,10.00
2019-04-21T21:22:43.924Z,9.90
2019-04-21T21:25:18.896Z,9.70
2019-04-21T21:27:43.834Z,9.70
2019-04-21T21:30:21.585Z,9.60
2019-04-21T21:32:56.153Z,9.70
2019-04-21T21:35:25.962Z,9.70
2019-04-21T21:38:09.944Z,9.70
2019-04-21T21:40:35.993Z,9.80
2019-04-21T21:42:53.255Z,9.70
2019-04-21T21:45:28.560Z,9.50
2019-04-21T21:48:12.651Z,9.40
2019-04-21T21:50:42.112Z,9.20
2019-04-21T21:53:10.519Z,9.10
2019-04-21T21:55:35.909Z,8.90
2019-04-21T21:58:08.519Z,8.80
2019-04-21T22:00:45.497Z,8.60
2019-04-21T22:03:26.636Z,8.50
2019-04-21T22:05:53.415Z,8.50
2019-04-21T22:08:20.690Z,8.50
2019-04-21T22:10:52.887Z,8.50
2019-04-21T22:13:32.757Z,8.50
2019-04-21T22:16:03.846Z,8.50
2019-04-21T22:18:43.251Z,8.50
2019-04-21T22:21:17.295Z,8.50
2019-04-21T22:23:43.835Z,8.50
2019-04-21T22:26:07.615Z,8.40
2019-04-21T22:28:39.723Z,8.10
2019-04-21T22:31:18.216Z,7.90
2019-04-21T22:33:48.289Z,7.90
2019-04-21T22:36:31.397Z,7.80
2019-04-21T22:39:09.322Z,7.70
2019-04-21T22:41:30.924Z,7.70
2019-04-21T22:43:55.932Z,7.60
2019-04-21T22:46:28.572Z,7.60
2019-04-21T22:49:05.515Z,7.60
2019-04-21T22:51:37.445Z,7.60
2019-04-21T22:54:06.148Z,7.50
2019-04-21T22:56:50.464Z,7.40
2019-04-21T22:59:16.017Z,7.40
2019-04-21T23:01:47.435Z,7.50
2019-04-21T23:04:15.932Z,7.40
2019-04-21T23:06:48.787Z,7.40
2019-04-21T23:09:19.738Z,7.20
2019-04-21T23:11:53.141Z,7.00
2019-04-21T23:14:23.757Z,6.90
2019-04-21T23:17:14.958Z,7.00
2019-04-21T23:19:38.808Z,7.00
2019-04-21T23:22:20.292Z,6.90
2019-04-21T23:24:56.093Z,6.80
2019-04-21T23:27:17.249Z,6.70
2019-04-21T23:30:00.524Z,6.60
2019-04-21T23:32:23.573Z,6.60
2019-04-21T23:34:45.346Z,6.60
2019-04-21T23:37:20.267Z,6.50
2019-04-21T23:39:54.191Z,6.40
2019-04-21T23:42:30.562Z,6.20
2019-04-21T23:44:58.108Z,6.20
2019-04-21T23:47:39.542Z,6.40
2019-04-21T23:50:07.372Z,6.50
2019-04-21T23:52:32.141Z,6.30
2019-04-21T23:55:03.294Z,6.20
2019-04-21T23:57:39.723Z,6.10
